sensor_id;sensor_type;location;lat;lon;timestamp;P1;durP1;ratioP1;P2;durP2;ratioP2
11098;SDS011;12223;42.650;23.364;2024-03-23T00:51:54;12.25;;;4.65;;
11098;SDS011;12223;42.650;23.364;2024-03-23T00:54:20;8.48;;;3.55;;
11098;SDS011;12223;42.650;23.364;2024-03-23T00:56:45;10.25;;;6.50;;
11098;SDS011;12223;42.650;23.364;2024-03-23T00:59:11;7.50;;;4.03;;
11098;SDS011;12223;42.650;23.364;2024-03-23T01:01:36;11.05;;;5.25;;
11098;SDS011;12223;42.650;23.364;2024-03-23T01:04:02;11.68;;;5.57;;
11098;SDS011;12223;42.650;23.364;2024-03-23T01:06:28;11.57;;;4.55;;
11098;SDS011;12223;42.650;23.364;2024-03-23T01:08:53;7.30;;;3.42;;
11098;SDS011;12223;42.650;23.364;2024-03-23T01:11:18;9.07;;;4.38;;
11098;SDS011;12223;42.650;23.364;2024-03-23T01:13:44;8.25;;;4.68;;
11098;SDS011;12223;42.650;23.364;2024-03-23T01:16:09;10.50;;;4.45;;
11098;SDS011;12223;42.650;23.364;2024-03-23T01:18:34;8.63;;;4.15;;
11098;SDS011;12223;42.650;23.364;2024-03-23T01:21:00;10.98;;;4.82;;
11098;SDS011;12223;42.650;23.364;2024-03-23T01:23:25;9.40;;;4.53;;
11098;SDS011;12223;42.650;23.364;2024-03-23T01:25:55;9.77;;;3.80;;
11098;SDS011;12223;42.650;23.364;2024-03-23T01:28:20;8.57;;;4.05;;
11098;SDS011;12223;42.650;23.364;2024-03-23T01:30:46;9.32;;;4.57;;
11098;SDS011;12223;42.650;23.364;2024-03-23T01:33:12;8.70;;;3.75;;
11098;SDS011;12223;42.650;23.364;2024-03-23T01:35:38;9.07;;;3.50;;
11098;SDS011;12223;42.650;23.364;2024-03-23T01:38:03;8.95;;;4.38;;
11098;SDS011;12223;42.650;23.364;2024-03-23T01:40:29;9.52;;;4.70;;
11098;SDS011;12223;42.650;23.364;2024-03-23T01:43:04;10.60;;;4.60;;
11098;SDS011;12223;42.650;23.364;2024-03-23T01:45:32;14.70;;;7.68;;
11098;SDS011;12223;42.650;23.364;2024-03-23T01:47:59;12.32;;;5.78;;
11098;SDS011;12223;42.650;23.364;2024-03-23T01:50:25;11.02;;;5.65;;
11098;SDS011;12223;42.650;23.364;2024-03-23T01:52:50;10.75;;;5.32;;
11098;SDS011;12223;42.650;23.364;2024-03-23T01:55:16;12.48;;;5.35;;
11098;SDS011;12223;42.650;23.364;2024-03-23T01:57:43;15.55;;;7.75;;
11098;SDS011;12223;42.650;23.364;2024-03-23T02:00:09;13.73;;;6.03;;
11098;SDS011;12223;42.650;23.364;2024-03-23T02:02:40;11.98;;;5.15;;
11098;SDS011;12223;42.650;23.364;2024-03-23T02:05:09;10.32;;;5.13;;
11098;SDS011;12223;42.650;23.364;2024-03-23T02:07:36;11.65;;;4.65;;
11098;SDS011;12223;42.650;23.364;2024-03-23T02:10:03;10.55;;;4.75;;
11098;SDS011;12223;42.650;23.364;2024-03-23T02:12:31;9.07;;;5.22;;
11098;SDS011;12223;42.650;23.364;2024-03-23T02:14:56;13.18;;;4.82;;
11098;SDS011;12223;42.650;23.364;2024-03-23T02:17:21;11.45;;;4.45;;
11098;SDS011;12223;42.650;23.364;2024-03-23T02:19:47;8.85;;;4.50;;
11098;SDS011;12223;42.650;23.364;2024-03-23T02:22:12;11.85;;;3.88;;
11098;SDS011;12223;42.650;23.364;2024-03-23T02:24:37;10.68;;;4.75;;
11098;SDS011;12223;42.650;23.364;2024-03-23T02:27:03;6.82;;;3.50;;
11098;SDS011;12223;42.650;23.364;2024-03-23T02:29:28;8.35;;;3.65;;
11098;SDS011;12223;42.650;23.364;2024-03-23T02:31:54;13.10;;;6.88;;
11098;SDS011;12223;42.650;23.364;2024-03-23T02:34:20;13.45;;;5.03;;
11098;SDS011;12223;42.650;23.364;2024-03-23T02:36:45;9.63;;;3.70;;
11098;SDS011;12223;42.650;23.364;2024-03-23T02:39:10;8.00;;;3.40;;
11098;SDS011;12223;42.650;23.364;2024-03-23T02:41:36;16.23;;;5.30;;
11098;SDS011;12223;42.650;23.364;2024-03-23T02:44:01;12.30;;;3.95;;
11098;SDS011;12223;42.650;23.364;2024-03-23T02:46:27;8.25;;;3.85;;
11098;SDS011;12223;42.650;23.364;2024-03-23T02:48:52;10.52;;;4.03;;
11098;SDS011;12223;42.650;23.364;2024-03-23T02:51:18;7.63;;;3.75;;
11098;SDS011;12223;42.650;23.364;2024-03-23T02:53:43;10.07;;;3.80;;
11098;SDS011;12223;42.650;23.364;2024-03-23T02:56:09;15.68;;;7.93;;
11098;SDS011;12223;42.650;23.364;2024-03-23T02:58:34;19.67;;;9.70;;
11098;SDS011;12223;42.650;23.364;2024-03-23T03:00:59;10.30;;;5.03;;
11098;SDS011;12223;42.650;23.364;2024-03-23T03:03:25;12.32;;;4.60;;
11098;SDS011;12223;42.650;23.364;2024-03-23T03:05:56;8.65;;;3.42;;
11098;SDS011;12223;42.650;23.364;2024-03-23T03:08:22;10.15;;;5.13;;
11098;SDS011;12223;42.650;23.364;2024-03-23T03:10:47;11.10;;;3.97;;
11098;SDS011;12223;42.650;23.364;2024-03-23T03:13:12;18.70;;;10.10;;
11098;SDS011;12223;42.650;23.364;2024-03-23T03:15:39;9.57;;;5.68;;
11098;SDS011;12223;42.650;23.364;2024-03-23T03:18:05;7.28;;;3.33;;
11098;SDS011;12223;42.650;23.364;2024-03-23T03:20:31;6.18;;;2.78;;
11098;SDS011;12223;42.650;23.364;2024-03-23T03:22:56;11.38;;;2.70;;
11098;SDS011;12223;42.650;23.364;2024-03-23T03:25:22;6.95;;;3.30;;
11098;SDS011;12223;42.650;23.364;2024-03-23T03:27:47;11.52;;;3.75;;
11098;SDS011;12223;42.650;23.364;2024-03-23T03:30:13;10.48;;;4.53;;
11098;SDS011;12223;42.650;23.364;2024-03-23T03:32:38;9.93;;;4.43;;
11098;SDS011;12223;42.650;23.364;2024-03-23T03:35:04;14.68;;;5.28;;
11098;SDS011;12223;42.650;23.364;2024-03-23T03:37:29;11.25;;;4.80;;
11098;SDS011;12223;42.650;23.364;2024-03-23T03:39:55;12.82;;;4.80;;
11098;SDS011;12223;42.650;23.364;2024-03-23T03:42:20;9.45;;;4.60;;
11098;SDS011;12223;42.650;23.364;2024-03-23T03:44:46;9.70;;;4.47;;
11098;SDS011;12223;42.650;23.364;2024-03-23T03:47:11;14.45;;;5.18;;
11098;SDS011;12223;42.650;23.364;2024-03-23T03:49:37;9.57;;;4.45;;
11098;SDS011;12223;42.650;23.364;2024-03-23T03:52:02;8.75;;;5.10;;
11098;SDS011;12223;42.650;23.364;2024-03-23T03:54:28;11.70;;;5.88;;
11098;SDS011;12223;42.650;23.364;2024-03-23T03:56:53;11.75;;;4.85;;
11098;SDS011;12223;42.650;23.364;2024-03-23T03:59:18;12.65;;;5.18;;
11098;SDS011;12223;42.650;23.364;2024-03-23T04:01:45;9.45;;;5.57;;
11098;SDS011;12223;42.650;23.364;2024-03-23T04:04:10;11.98;;;4.65;;
11098;SDS011;12223;42.650;23.364;2024-03-23T04:06:36;8.32;;;4.32;;
11098;SDS011;12223;42.650;23.364;2024-03-23T04:09:02;8.60;;;4.22;;
11098;SDS011;12223;42.650;23.364;2024-03-23T04:11:27;9.20;;;4.55;;
11098;SDS011;12223;42.650;23.364;2024-03-23T04:13:52;8.85;;;4.57;;
11098;SDS011;12223;42.650;23.364;2024-03-23T04:16:27;13.30;;;5.20;;
11098;SDS011;12223;42.650;23.364;2024-03-23T04:18:53;18.00;;;5.68;;
11098;SDS011;12223;42.650;23.364;2024-03-23T04:21:19;11.25;;;4.88;;
11098;SDS011;12223;42.650;23.364;2024-03-23T04:23:44;13.18;;;5.72;;
11098;SDS011;12223;42.650;23.364;2024-03-23T04:26:10;15.60;;;5.90;;
11098;SDS011;12223;42.650;23.364;2024-03-23T04:28:36;9.60;;;5.18;;
11098;SDS011;12223;42.650;23.364;2024-03-23T04:31:05;12.55;;;4.63;;
11098;SDS011;12223;42.650;23.364;2024-03-23T04:33:30;13.13;;;5.00;;
11098;SDS011;12223;42.650;23.364;2024-03-23T04:35:55;11.07;;;5.13;;
11098;SDS011;12223;42.650;23.364;2024-03-23T04:38:21;9.60;;;4.55;;
11098;SDS011;12223;42.650;23.364;2024-03-23T04:40:53;14.25;;;5.63;;
11098;SDS011;12223;42.650;23.364;2024-03-23T04:43:20;11.80;;;4.95;;
11098;SDS011;12223;42.650;23.364;2024-03-23T04:45:45;11.60;;;4.68;;
11098;SDS011;12223;42.650;23.364;2024-03-23T04:48:11;12.18;;;4.97;;
11098;SDS011;12223;42.650;23.364;2024-03-23T04:50:36;10.85;;;4.95;;
11098;SDS011;12223;42.650;23.364;2024-03-23T04:53:01;10.02;;;5.93;;
11098;SDS011;12223;42.650;23.364;2024-03-23T04:55:27;14.60;;;6.03;;
11098;SDS011;12223;42.650;23.364;2024-03-23T04:57:53;17.00;;;5.20;;
11098;SDS011;12223;42.650;23.364;2024-03-23T05:00:19;14.52;;;6.38;;
11098;SDS011;12223;42.650;23.364;2024-03-23T05:02:44;13.85;;;5.80;;
11098;SDS011;12223;42.650;23.364;2024-03-23T05:05:10;15.05;;;6.63;;
11098;SDS011;12223;42.650;23.364;2024-03-23T05:07:36;14.40;;;6.22;;
11098;SDS011;12223;42.650;23.364;2024-03-23T05:10:02;17.88;;;7.18;;
11098;SDS011;12223;42.650;23.364;2024-03-23T05:12:28;22.25;;;8.30;;
11098;SDS011;12223;42.650;23.364;2024-03-23T05:14:53;20.02;;;7.32;;
11098;SDS011;12223;42.650;23.364;2024-03-23T05:17:18;20.80;;;8.20;;
11098;SDS011;12223;42.650;23.364;2024-03-23T05:19:44;14.55;;;8.48;;
11098;SDS011;12223;42.650;23.364;2024-03-23T05:22:12;14.80;;;7.20;;
11098;SDS011;12223;42.650;23.364;2024-03-23T05:24:37;11.45;;;6.03;;
11098;SDS011;12223;42.650;23.364;2024-03-23T05:27:02;13.73;;;6.93;;
11098;SDS011;12223;42.650;23.364;2024-03-23T05:29:28;9.13;;;5.93;;
11098;SDS011;12223;42.650;23.364;2024-03-23T05:31:54;8.32;;;5.68;;
11098;SDS011;12223;42.650;23.364;2024-03-23T05:34:22;10.13;;;5.15;;
11098;SDS011;12223;42.650;23.364;2024-03-23T05:36:47;11.85;;;5.28;;
11098;SDS011;12223;42.650;23.364;2024-03-23T05:39:14;13.00;;;5.10;;
11098;SDS011;12223;42.650;23.364;2024-03-23T05:41:41;10.07;;;4.90;;
11098;SDS011;12223;42.650;23.364;2024-03-23T05:44:07;10.48;;;5.50;;
11098;SDS011;12223;42.650;23.364;2024-03-23T05:46:32;16.52;;;6.68;;
11098;SDS011;12223;42.650;23.364;2024-03-23T05:49:00;13.80;;;6.55;;
11098;SDS011;12223;42.650;23.364;2024-03-23T05:51:27;13.80;;;6.13;;
11098;SDS011;12223;42.650;23.364;2024-03-23T05:53:53;9.57;;;5.70;;
11098;SDS011;12223;42.650;23.364;2024-03-23T05:56:19;10.38;;;6.10;;
11098;SDS011;12223;42.650;23.364;2024-03-23T05:58:45;16.77;;;6.18;;
11098;SDS011;12223;42.650;23.364;2024-03-23T06:01:11;12.27;;;5.80;;
11098;SDS011;12223;42.650;23.364;2024-03-23T06:03:38;17.80;;;5.97;;
11098;SDS011;12223;42.650;23.364;2024-03-23T06:06:05;8.25;;;5.32;;
11098;SDS011;12223;42.650;23.364;2024-03-23T06:08:35;10.93;;;6.00;;
11098;SDS011;12223;42.650;23.364;2024-03-23T06:11:00;12.55;;;7.97;;
11098;SDS011;12223;42.650;23.364;2024-03-23T06:13:26;16.20;;;6.95;;
11098;SDS011;12223;42.650;23.364;2024-03-23T06:15:55;14.23;;;7.40;;
11098;SDS011;12223;42.650;23.364;2024-03-23T06:18:20;13.93;;;7.35;;
11098;SDS011;12223;42.650;23.364;2024-03-23T06:20:46;11.43;;;7.32;;
11098;SDS011;12223;42.650;23.364;2024-03-23T06:23:11;15.85;;;8.80;;
11098;SDS011;12223;42.650;23.364;2024-03-23T06:25:37;14.02;;;7.68;;
11098;SDS011;12223;42.650;23.364;2024-03-23T06:28:03;24.30;;;6.85;;
11098;SDS011;12223;42.650;23.364;2024-03-23T06:30:29;24.67;;;6.80;;
11098;SDS011;12223;42.650;23.364;2024-03-23T06:32:55;14.05;;;6.30;;
11098;SDS011;12223;42.650;23.364;2024-03-23T06:35:20;11.90;;;6.85;;
11098;SDS011;12223;42.650;23.364;2024-03-23T06:37:45;20.35;;;7.13;;
11098;SDS011;12223;42.650;23.364;2024-03-23T06:40:11;15.85;;;6.90;;
11098;SDS011;12223;42.650;23.364;2024-03-23T06:42:36;12.43;;;6.18;;
11098;SDS011;12223;42.650;23.364;2024-03-23T06:45:05;12.40;;;6.00;;
11098;SDS011;12223;42.650;23.364;2024-03-23T06:47:31;12.05;;;5.93;;
11098;SDS011;12223;42.650;23.364;2024-03-23T06:49:57;10.82;;;5.85;;
11098;SDS011;12223;42.650;23.364;2024-03-23T06:52:24;10.50;;;5.70;;
11098;SDS011;12223;42.650;23.364;2024-03-23T06:54:49;10.52;;;5.47;;
11098;SDS011;12223;42.650;23.364;2024-03-23T06:57:15;16.02;;;6.15;;
11098;SDS011;12223;42.650;23.364;2024-03-23T06:59:40;13.98;;;5.60;;
11098;SDS011;12223;42.650;23.364;2024-03-23T07:02:05;12.02;;;5.78;;
11098;SDS011;12223;42.650;23.364;2024-03-23T07:04:33;14.40;;;6.45;;
11098;SDS011;12223;42.650;23.364;2024-03-23T07:06:59;13.38;;;6.88;;
11098;SDS011;12223;42.650;23.364;2024-03-23T07:09:24;12.55;;;5.68;;
11098;SDS011;12223;42.650;23.364;2024-03-23T07:11:51;11.70;;;5.10;;
11098;SDS011;12223;42.650;23.364;2024-03-23T07:14:19;11.50;;;5.93;;
11098;SDS011;12223;42.650;23.364;2024-03-23T07:16:44;17.38;;;5.70;;
11098;SDS011;12223;42.650;23.364;2024-03-23T07:19:09;18.15;;;5.72;;
11098;SDS011;12223;42.650;23.364;2024-03-23T07:21:35;13.25;;;6.13;;
11098;SDS011;12223;42.650;23.364;2024-03-23T07:24:03;12.05;;;5.93;;
11098;SDS011;12223;42.650;23.364;2024-03-23T07:26:29;17.60;;;6.07;;
11098;SDS011;12223;42.650;23.364;2024-03-23T07:28:54;14.30;;;6.28;;
11098;SDS011;12223;42.650;23.364;2024-03-23T07:31:19;13.80;;;6.25;;
11098;SDS011;12223;42.650;23.364;2024-03-23T07:33:46;13.93;;;7.50;;
11098;SDS011;12223;42.650;23.364;2024-03-23T07:36:12;13.10;;;6.57;;
11098;SDS011;12223;42.650;23.364;2024-03-23T07:38:39;11.77;;;5.97;;
11098;SDS011;12223;42.650;23.364;2024-03-23T07:41:07;11.65;;;6.35;;
11098;SDS011;12223;42.650;23.364;2024-03-23T07:43:34;13.77;;;5.80;;
11098;SDS011;12223;42.650;23.364;2024-03-23T07:45:59;11.32;;;5.90;;
11098;SDS011;12223;42.650;23.364;2024-03-23T07:48:25;28.92;;;9.27;;
11098;SDS011;12223;42.650;23.364;2024-03-23T07:53:23;14.52;;;6.80;;
11098;SDS011;12223;42.650;23.364;2024-03-23T07:55:54;14.30;;;7.03;;
11098;SDS011;12223;42.650;23.364;2024-03-23T07:58:20;18.00;;;7.65;;
11098;SDS011;12223;42.650;23.364;2024-03-23T08:00:46;14.02;;;6.80;;
11098;SDS011;12223;42.650;23.364;2024-03-23T08:03:11;17.08;;;6.22;;
11098;SDS011;12223;42.650;23.364;2024-03-23T08:05:37;18.42;;;6.50;;
11098;SDS011;12223;42.650;23.364;2024-03-23T08:08:02;13.10;;;6.03;;
11098;SDS011;12223;42.650;23.364;2024-03-23T08:10:28;15.00;;;6.22;;
11098;SDS011;12223;42.650;23.364;2024-03-23T08:12:53;21.98;;;6.70;;
11098;SDS011;12223;42.650;23.364;2024-03-23T08:15:18;13.68;;;6.80;;
11098;SDS011;12223;42.650;23.364;2024-03-23T08:17:44;14.63;;;7.15;;
11098;SDS011;12223;42.650;23.364;2024-03-23T08:20:09;10.48;;;5.47;;
11098;SDS011;12223;42.650;23.364;2024-03-23T08:22:35;16.83;;;6.10;;
11098;SDS011;12223;42.650;23.364;2024-03-23T08:25:01;19.27;;;6.55;;
11098;SDS011;12223;42.650;23.364;2024-03-23T08:27:26;15.10;;;7.00;;
11098;SDS011;12223;42.650;23.364;2024-03-23T08:29:51;14.15;;;6.60;;
11098;SDS011;12223;42.650;23.364;2024-03-23T08:32:17;15.40;;;6.50;;
11098;SDS011;12223;42.650;23.364;2024-03-23T08:34:42;11.68;;;7.05;;
11098;SDS011;12223;42.650;23.364;2024-03-23T08:37:08;15.30;;;7.50;;
11098;SDS011;12223;42.650;23.364;2024-03-23T08:39:33;11.75;;;6.50;;
11098;SDS011;12223;42.650;23.364;2024-03-23T08:41:58;11.02;;;7.15;;
11098;SDS011;12223;42.650;23.364;2024-03-23T08:44:24;15.27;;;6.75;;
11098;SDS011;12223;42.650;23.364;2024-03-23T08:46:49;22.85;;;7.55;;
11098;SDS011;12223;42.650;23.364;2024-03-23T08:49:14;17.27;;;6.53;;
11098;SDS011;12223;42.650;23.364;2024-03-23T08:51:40;13.88;;;6.47;;
11098;SDS011;12223;42.650;23.364;2024-03-23T08:54:05;12.35;;;5.22;;
11098;SDS011;12223;42.650;23.364;2024-03-23T08:56:30;15.85;;;8.05;;
11098;SDS011;12223;42.650;23.364;2024-03-23T08:58:56;12.02;;;5.68;;
11098;SDS011;12223;42.650;23.364;2024-03-23T09:01:21;18.75;;;7.38;;
11098;SDS011;12223;42.650;23.364;2024-03-23T09:03:47;12.65;;;6.15;;
11098;SDS011;12223;42.650;23.364;2024-03-23T09:06:13;15.00;;;6.75;;
11098;SDS011;12223;42.650;23.364;2024-03-23T09:08:40;13.00;;;6.15;;
11098;SDS011;12223;42.650;23.364;2024-03-23T09:11:06;15.43;;;5.78;;
11098;SDS011;12223;42.650;23.364;2024-03-23T09:13:33;15.75;;;6.55;;
11098;SDS011;12223;42.650;23.364;2024-03-23T09:15:59;15.48;;;6.93;;
11098;SDS011;12223;42.650;23.364;2024-03-23T09:18:25;13.63;;;5.28;;
11098;SDS011;12223;42.650;23.364;2024-03-23T09:20:51;12.15;;;7.10;;
11098;SDS011;12223;42.650;23.364;2024-03-23T09:23:18;12.60;;;6.15;;
11098;SDS011;12223;42.650;23.364;2024-03-23T09:25:43;10.02;;;6.50;;
11098;SDS011;12223;42.650;23.364;2024-03-23T09:28:09;15.70;;;7.53;;
11098;SDS011;12223;42.650;23.364;2024-03-23T09:30:35;10.80;;;5.80;;
11098;SDS011;12223;42.650;23.364;2024-03-23T09:33:02;16.13;;;6.72;;
11098;SDS011;12223;42.650;23.364;2024-03-23T09:35:28;14.98;;;6.10;;
11098;SDS011;12223;42.650;23.364;2024-03-23T09:37:53;12.63;;;5.13;;
11098;SDS011;12223;42.650;23.364;2024-03-23T09:40:19;10.00;;;5.18;;
11098;SDS011;12223;42.650;23.364;2024-03-23T09:42:49;11.55;;;6.28;;
11098;SDS011;12223;42.650;23.364;2024-03-23T09:45:20;12.27;;;5.70;;
11098;SDS011;12223;42.650;23.364;2024-03-23T09:47:47;12.32;;;5.53;;
11098;SDS011;12223;42.650;23.364;2024-03-23T09:50:13;10.07;;;7.43;;
11098;SDS011;12223;42.650;23.364;2024-03-23T09:52:39;10.80;;;5.13;;
11098;SDS011;12223;42.650;23.364;2024-03-23T09:55:06;10.95;;;4.93;;
11098;SDS011;12223;42.650;23.364;2024-03-23T09:57:33;10.75;;;4.63;;
11098;SDS011;12223;42.650;23.364;2024-03-23T09:59:59;12.32;;;5.07;;
11098;SDS011;12223;42.650;23.364;2024-03-23T10:02:24;13.98;;;5.38;;
11098;SDS011;12223;42.650;23.364;2024-03-23T10:04:50;14.10;;;7.07;;
11098;SDS011;12223;42.650;23.364;2024-03-23T10:07:18;10.27;;;5.43;;
11098;SDS011;12223;42.650;23.364;2024-03-23T10:09:45;12.20;;;6.25;;
11098;SDS011;12223;42.650;23.364;2024-03-23T10:12:12;11.68;;;6.25;;
11098;SDS011;12223;42.650;23.364;2024-03-23T10:14:39;16.42;;;5.68;;
11098;SDS011;12223;42.650;23.364;2024-03-23T10:17:15;10.20;;;5.05;;
11098;SDS011;12223;42.650;23.364;2024-03-23T10:19:51;9.07;;;4.72;;
11098;SDS011;12223;42.650;23.364;2024-03-23T10:22:20;9.63;;;5.80;;
11098;SDS011;12223;42.650;23.364;2024-03-23T10:24:48;9.40;;;4.05;;
11098;SDS011;12223;42.650;23.364;2024-03-23T10:27:18;12.45;;;6.07;;
11098;SDS011;12223;42.650;23.364;2024-03-23T10:29:45;10.70;;;5.82;;
11098;SDS011;12223;42.650;23.364;2024-03-23T10:32:12;14.15;;;5.88;;
11098;SDS011;12223;42.650;23.364;2024-03-23T10:34:41;11.65;;;5.63;;
11098;SDS011;12223;42.650;23.364;2024-03-23T10:37:07;8.52;;;5.75;;
11098;SDS011;12223;42.650;23.364;2024-03-23T10:39:34;11.07;;;5.57;;
11098;SDS011;12223;42.650;23.364;2024-03-23T10:42:04;9.98;;;4.93;;
11098;SDS011;12223;42.650;23.364;2024-03-23T10:44:32;12.75;;;5.75;;
11098;SDS011;12223;42.650;23.364;2024-03-23T10:46:58;14.90;;;6.57;;
11098;SDS011;12223;42.650;23.364;2024-03-23T10:49:34;11.10;;;5.15;;
11098;SDS011;12223;42.650;23.364;2024-03-23T10:52:04;13.77;;;5.47;;
11098;SDS011;12223;42.650;23.364;2024-03-23T10:54:31;10.90;;;6.32;;
11098;SDS011;12223;42.650;23.364;2024-03-23T10:57:11;10.63;;;6.28;;
11098;SDS011;12223;42.650;23.364;2024-03-23T10:59:39;10.52;;;5.55;;
11098;SDS011;12223;42.650;23.364;2024-03-23T11:02:05;10.05;;;6.28;;
11098;SDS011;12223;42.650;23.364;2024-03-23T11:04:36;10.57;;;5.28;;
11098;SDS011;12223;42.650;23.364;2024-03-23T11:09:49;11.45;;;5.10;;
11098;SDS011;12223;42.650;23.364;2024-03-23T11:17:31;9.50;;;4.95;;
11098;SDS011;12223;42.650;23.364;2024-03-23T11:20:01;11.20;;;5.28;;
11098;SDS011;12223;42.650;23.364;2024-03-23T11:22:46;9.23;;;5.32;;
11098;SDS011;12223;42.650;23.364;2024-03-23T11:25:22;10.52;;;6.05;;
11098;SDS011;12223;42.650;23.364;2024-03-23T11:28:30;12.35;;;5.43;;
11098;SDS011;12223;42.650;23.364;2024-03-23T11:30:37;10.63;;;4.90;;
11098;SDS011;12223;42.650;23.364;2024-03-23T11:33:05;11.35;;;5.05;;
11098;SDS011;12223;42.650;23.364;2024-03-23T11:35:34;13.05;;;5.82;;
11098;SDS011;12223;42.650;23.364;2024-03-23T11:38:03;9.98;;;5.05;;
11098;SDS011;12223;42.650;23.364;2024-03-23T11:40:32;8.55;;;5.68;;
11098;SDS011;12223;42.650;23.364;2024-03-23T11:42:59;11.85;;;5.47;;
11098;SDS011;12223;42.650;23.364;2024-03-23T11:45:26;11.65;;;5.53;;
11098;SDS011;12223;42.650;23.364;2024-03-23T11:48:13;13.80;;;6.15;;
11098;SDS011;12223;42.650;23.364;2024-03-23T11:50:41;17.17;;;8.00;;
11098;SDS011;12223;42.650;23.364;2024-03-23T11:53:42;11.52;;;5.75;;
11098;SDS011;12223;42.650;23.364;2024-03-23T11:56:00;9.15;;;4.78;;
11098;SDS011;12223;42.650;23.364;2024-03-23T11:58:27;9.98;;;5.03;;
11098;SDS011;12223;42.650;23.364;2024-03-23T12:00:55;10.82;;;5.90;;
11098;SDS011;12223;42.650;23.364;2024-03-23T12:03:22;8.25;;;5.45;;
11098;SDS011;12223;42.650;23.364;2024-03-23T12:05:51;12.23;;;6.38;;
11098;SDS011;12223;42.650;23.364;2024-03-23T12:08:24;11.95;;;5.50;;
11098;SDS011;12223;42.650;23.364;2024-03-23T12:10:51;10.15;;;6.05;;
11098;SDS011;12223;42.650;23.364;2024-03-23T12:13:21;11.38;;;4.50;;
11098;SDS011;12223;42.650;23.364;2024-03-23T12:15:49;9.77;;;5.40;;
11098;SDS011;12223;42.650;23.364;2024-03-23T12:18:15;11.88;;;5.30;;
11098;SDS011;12223;42.650;23.364;2024-03-23T12:20:41;13.10;;;5.43;;
11098;SDS011;12223;42.650;23.364;2024-03-23T12:23:07;8.90;;;5.00;;
11098;SDS011;12223;42.650;23.364;2024-03-23T12:25:34;10.10;;;5.00;;
11098;SDS011;12223;42.650;23.364;2024-03-23T12:28:04;12.10;;;5.32;;
11098;SDS011;12223;42.650;23.364;2024-03-23T12:30:35;10.20;;;5.25;;
11098;SDS011;12223;42.650;23.364;2024-03-23T12:33:03;15.23;;;4.88;;
11098;SDS011;12223;42.650;23.364;2024-03-23T12:35:28;10.25;;;5.00;;
11098;SDS011;12223;42.650;23.364;2024-03-23T12:37:54;10.00;;;5.43;;
11098;SDS011;12223;42.650;23.364;2024-03-23T12:40:19;9.20;;;4.90;;
11098;SDS011;12223;42.650;23.364;2024-03-23T12:42:45;11.73;;;5.40;;
11098;SDS011;12223;42.650;23.364;2024-03-23T12:45:10;9.13;;;4.43;;
11098;SDS011;12223;42.650;23.364;2024-03-23T12:47:35;9.52;;;5.25;;
11098;SDS011;12223;42.650;23.364;2024-03-23T12:50:01;8.75;;;4.70;;
11098;SDS011;12223;42.650;23.364;2024-03-23T12:52:26;8.63;;;5.28;;
11098;SDS011;12223;42.650;23.364;2024-03-23T12:54:55;8.55;;;3.70;;
11098;SDS011;12223;42.650;23.364;2024-03-23T12:57:25;8.07;;;3.65;;
11098;SDS011;12223;42.650;23.364;2024-03-23T12:59:53;5.40;;;3.13;;
11098;SDS011;12223;42.650;23.364;2024-03-23T13:02:22;6.55;;;3.17;;
11098;SDS011;12223;42.650;23.364;2024-03-23T13:04:50;6.78;;;3.55;;
11098;SDS011;12223;42.650;23.364;2024-03-23T13:07:17;4.32;;;2.28;;
11098;SDS011;12223;42.650;23.364;2024-03-23T13:09:43;6.32;;;2.45;;
11098;SDS011;12223;42.650;23.364;2024-03-23T13:12:09;5.43;;;2.42;;
11098;SDS011;12223;42.650;23.364;2024-03-23T13:14:37;4.20;;;2.28;;
11098;SDS011;12223;42.650;23.364;2024-03-23T13:17:03;7.90;;;2.60;;
11098;SDS011;12223;42.650;23.364;2024-03-23T13:19:29;9.15;;;3.25;;
11098;SDS011;12223;42.650;23.364;2024-03-23T13:21:56;7.88;;;2.85;;
11098;SDS011;12223;42.650;23.364;2024-03-23T13:24:22;5.47;;;2.30;;
11098;SDS011;12223;42.650;23.364;2024-03-23T13:26:49;6.38;;;2.95;;
11098;SDS011;12223;42.650;23.364;2024-03-23T13:29:18;7.38;;;2.35;;
11098;SDS011;12223;42.650;23.364;2024-03-23T13:31:44;4.15;;;2.25;;
11098;SDS011;12223;42.650;23.364;2024-03-23T13:34:10;7.15;;;2.85;;
11098;SDS011;12223;42.650;23.364;2024-03-23T13:36:35;3.97;;;2.25;;
11098;SDS011;12223;42.650;23.364;2024-03-23T13:39:01;6.20;;;2.45;;
11098;SDS011;12223;42.650;23.364;2024-03-23T13:41:31;4.28;;;2.55;;
11098;SDS011;12223;42.650;23.364;2024-03-23T13:43:57;7.40;;;2.10;;
11098;SDS011;12223;42.650;23.364;2024-03-23T13:46:22;6.28;;;2.15;;
11098;SDS011;12223;42.650;23.364;2024-03-23T13:48:47;12.60;;;2.70;;
11098;SDS011;12223;42.650;23.364;2024-03-23T13:51:13;7.20;;;2.08;;
11098;SDS011;12223;42.650;23.364;2024-03-23T13:53:38;6.03;;;1.27;;
11098;SDS011;12223;42.650;23.364;2024-03-23T13:56:03;5.93;;;1.45;;
11098;SDS011;12223;42.650;23.364;2024-03-23T13:58:29;1.88;;;0.98;;
11098;SDS011;12223;42.650;23.364;2024-03-23T14:00:56;2.65;;;1.05;;
11098;SDS011;12223;42.650;23.364;2024-03-23T14:03:22;4.13;;;1.05;;
11098;SDS011;12223;42.650;23.364;2024-03-23T14:05:48;1.92;;;1.27;;
11098;SDS011;12223;42.650;23.364;2024-03-23T14:08:13;4.13;;;2.00;;
11098;SDS011;12223;42.650;23.364;2024-03-23T14:10:41;5.88;;;3.67;;
11098;SDS011;12223;42.650;23.364;2024-03-23T14:13:08;4.85;;;3.25;;
11098;SDS011;12223;42.650;23.364;2024-03-23T14:15:33;7.90;;;2.65;;
11098;SDS011;12223;42.650;23.364;2024-03-23T14:17:59;6.82;;;2.60;;
11098;SDS011;12223;42.650;23.364;2024-03-23T14:20:24;4.53;;;1.55;;
11098;SDS011;12223;42.650;23.364;2024-03-23T14:22:50;4.03;;;0.90;;
11098;SDS011;12223;42.650;23.364;2024-03-23T14:25:16;6.38;;;1.13;;
11098;SDS011;12223;42.650;23.364;2024-03-23T14:27:45;1.63;;;0.68;;
11098;SDS011;12223;42.650;23.364;2024-03-23T14:30:11;2.67;;;0.82;;
11098;SDS011;12223;42.650;23.364;2024-03-23T14:32:37;1.08;;;0.45;;
11098;SDS011;12223;42.650;23.364;2024-03-23T14:35:03;3.00;;;0.93;;
11098;SDS011;12223;42.650;23.364;2024-03-23T14:37:29;6.72;;;0.85;;
11098;SDS011;12223;42.650;23.364;2024-03-23T14:39:55;6.15;;;1.40;;
11098;SDS011;12223;42.650;23.364;2024-03-23T14:42:24;2.22;;;0.98;;
11098;SDS011;12223;42.650;23.364;2024-03-23T14:44:50;2.50;;;0.73;;
11098;SDS011;12223;42.650;23.364;2024-03-23T14:47:18;2.53;;;1.00;;
11098;SDS011;12223;42.650;23.364;2024-03-23T14:49:44;7.45;;;1.25;;
11098;SDS011;12223;42.650;23.364;2024-03-23T14:52:15;5.18;;;0.63;;
11098;SDS011;12223;42.650;23.364;2024-03-23T14:54:40;1.30;;;0.35;;
11098;SDS011;12223;42.650;23.364;2024-03-23T14:57:06;1.35;;;1.05;;
11098;SDS011;12223;42.650;23.364;2024-03-23T14:59:35;4.60;;;1.27;;
11098;SDS011;12223;42.650;23.364;2024-03-23T15:02:03;2.03;;;0.95;;
11098;SDS011;12223;42.650;23.364;2024-03-23T15:04:31;5.53;;;1.40;;
11098;SDS011;12223;42.650;23.364;2024-03-23T15:06:57;3.10;;;1.23;;
11098;SDS011;12223;42.650;23.364;2024-03-23T15:09:22;1.77;;;1.08;;
11098;SDS011;12223;42.650;23.364;2024-03-23T15:11:48;1.15;;;0.75;;
11098;SDS011;12223;42.650;23.364;2024-03-23T15:14:13;3.60;;;0.90;;
11098;SDS011;12223;42.650;23.364;2024-03-23T15:16:38;2.65;;;1.15;;
11098;SDS011;12223;42.650;23.364;2024-03-23T15:19:04;1.63;;;1.00;;
11098;SDS011;12223;42.650;23.364;2024-03-23T15:21:33;2.25;;;0.50;;
11098;SDS011;12223;42.650;23.364;2024-03-23T15:23:58;1.10;;;0.63;;